createdAt,value
2023-07-11T00:00:27.496Z,71.70
2023-07-11T00:02:56.602Z,71.90
2023-07-11T00:05:25.800Z,72.90
2023-07-11T00:07:54.923Z,73.00
2023-07-11T00:10:24.091Z,72.40
2023-07-11T00:12:54.611Z,72.60
2023-07-11T00:15:24.276Z,72.40
2023-07-11T00:17:54.578Z,72.40
2023-07-11T00:20:23.967Z,72.50
2023-07-11T00:22:53.064Z,72.70
2023-07-11T00:25:22.580Z,72.70
2023-07-11T00:27:51.650Z,72.80
2023-07-11T00:30:22.084Z,72.90
2023-07-11T00:32:51.202Z,73.20
2023-07-11T00:35:22.599Z,73.10
2023-07-11T00:37:51.665Z,73.10
2023-07-11T00:40:20.654Z,73.20
2023-07-11T00:42:53.055Z,73.10
2023-07-11T00:46:04.970Z,73.30
2023-07-11T00:48:37.570Z,74.00
2023-07-11T00:51:09.553Z,73.10
2023-07-11T00:53:41.413Z,73.30
2023-07-11T00:56:17.045Z,73.10
2023-07-11T00:58:47.804Z,72.90
2023-07-11T01:01:36.940Z,72.90
2023-07-11T01:04:08.118Z,73.00
2023-07-11T01:06:37.763Z,72.90
2023-07-11T01:09:06.786Z,73.00
2023-07-11T01:11:56.494Z,73.10
2023-07-11T01:14:27.057Z,74.90
2023-07-11T01:17:00.016Z,73.50
2023-07-11T01:19:29.168Z,74.50
2023-07-11T01:21:59.582Z,73.70
2023-07-11T01:24:28.580Z,73.90
2023-07-11T01:26:57.795Z,74.00
2023-07-11T01:29:26.850Z,74.00
2023-07-11T01:31:55.887Z,74.00
2023-07-11T01:34:28.354Z,74.10
2023-07-11T01:36:57.369Z,74.20
2023-07-11T01:39:27.780Z,74.20
2023-07-11T01:41:59.603Z,75.00
2023-07-11T01:44:29.873Z,74.20
2023-07-11T01:46:59.265Z,74.20
2023-07-11T01:49:30.165Z,74.20
2023-07-11T01:52:09.597Z,74.20
2023-07-11T01:54:39.925Z,74.80
2023-07-11T01:57:09.645Z,74.30
2023-07-11T01:59:40.235Z,74.10
2023-07-11T02:02:10.940Z,74.40
2023-07-11T02:04:40.432Z,74.30
2023-07-11T02:07:09.999Z,74.30
2023-07-11T02:09:40.588Z,74.30
2023-07-11T02:12:11.753Z,75.00
2023-07-11T02:14:41.858Z,74.10
2023-07-11T02:17:11.365Z,74.90
2023-07-11T02:19:40.442Z,74.20
2023-07-11T02:22:09.840Z,74.40
2023-07-11T02:24:41.798Z,74.60
2023-07-11T02:27:11.310Z,74.90
2023-07-11T02:29:40.349Z,75.70
2023-07-11T02:32:10.495Z,74.80
2023-07-11T02:34:39.570Z,74.80
2023-07-11T02:37:08.580Z,74.90
2023-07-11T02:39:39.019Z,75.00
2023-07-11T02:42:08.649Z,75.00
2023-07-11T02:44:37.826Z,75.10
2023-07-11T02:47:07.492Z,75.00
2023-07-11T02:49:39.437Z,75.00
2023-07-11T02:52:12.137Z,75.00
2023-07-11T02:54:44.879Z,74.80
2023-07-11T02:57:14.380Z,74.90
2023-07-11T02:59:43.442Z,74.70
2023-07-11T03:02:12.405Z,75.40
2023-07-11T03:04:41.449Z,74.60
2023-07-11T03:07:10.508Z,74.70
2023-07-11T03:09:40.177Z,74.80
2023-07-11T03:12:12.190Z,74.70
2023-07-11T03:14:41.187Z,74.80
2023-07-11T03:17:10.251Z,74.60
2023-07-11T03:19:39.267Z,74.90
2023-07-11T03:22:08.764Z,75.00
2023-07-11T03:24:37.743Z,75.10
2023-07-11T03:27:07.403Z,75.30
2023-07-11T03:29:37.786Z,75.50
2023-07-11T03:32:08.215Z,75.60
2023-07-11T03:34:39.482Z,75.70
2023-07-11T03:37:15.319Z,76.40
2023-07-11T03:39:44.535Z,75.60
2023-07-11T03:42:13.601Z,75.70
2023-07-11T03:44:45.926Z,75.70
2023-07-11T03:47:14.966Z,76.70
2023-07-11T03:49:47.012Z,75.60
2023-07-11T03:52:16.040Z,75.30
2023-07-11T03:54:48.088Z,75.20
2023-07-11T03:57:18.493Z,76.10
2023-07-11T03:59:49.134Z,75.50
2023-07-11T04:02:18.514Z,75.80
2023-07-11T04:04:47.756Z,75.80
2023-07-11T04:07:16.753Z,75.90
2023-07-11T04:09:46.016Z,76.00
2023-07-11T04:12:18.195Z,76.20
2023-07-11T04:14:48.618Z,76.10
2023-07-11T04:17:17.672Z,76.40
2023-07-11T04:19:46.655Z,76.30
2023-07-11T04:22:15.843Z,76.50
2023-07-11T04:24:45.234Z,77.30
2023-07-11T04:27:16.223Z,76.60
2023-07-11T04:29:45.526Z,76.40
2023-07-11T04:32:15.958Z,76.30
2023-07-11T04:34:45.072Z,76.20
2023-07-11T04:37:14.260Z,76.20
2023-07-11T04:39:43.252Z,76.00
2023-07-11T04:42:12.560Z,76.80
2023-07-11T04:44:41.692Z,76.20
2023-07-11T04:47:20.509Z,76.40
2023-07-11T04:49:51.205Z,76.50
2023-07-11T04:52:20.461Z,75.70
2023-07-11T04:54:49.715Z,76.10
2023-07-11T04:57:19.083Z,76.10
2023-07-11T04:59:48.358Z,75.80
2023-07-11T05:02:17.649Z,76.20
2023-07-11T05:04:46.990Z,76.00
2023-07-11T05:07:17.735Z,75.30
2023-07-11T05:09:58.643Z,75.80
2023-07-11T05:12:28.935Z,75.50
2023-07-11T05:14:58.386Z,76.20
2023-07-11T05:17:27.689Z,76.20
2023-07-11T05:19:59.212Z,76.20
2023-07-11T05:22:29.641Z,76.40
2023-07-11T05:24:58.955Z,76.40
2023-07-11T05:27:28.559Z,75.90
2023-07-11T05:29:57.891Z,76.50
2023-07-11T05:32:27.220Z,76.20
2023-07-11T05:34:56.498Z,76.80
2023-07-11T05:37:26.213Z,76.20
2023-07-11T05:39:56.674Z,76.70
2023-07-11T05:42:27.720Z,77.10
2023-07-11T05:44:57.879Z,77.20
2023-07-11T05:47:27.060Z,77.00
2023-07-11T05:49:56.317Z,77.00
2023-07-11T05:52:25.722Z,77.50
2023-07-11T05:54:56.500Z,78.00
2023-07-11T05:57:25.652Z,77.50
2023-07-11T05:59:54.706Z,77.60
2023-07-11T06:02:23.992Z,78.40
2023-07-11T06:04:53.070Z,77.60
2023-07-11T06:07:23.754Z,77.30
2023-07-11T06:09:54.774Z,76.50
2023-07-11T06:12:27.230Z,77.20
2023-07-11T06:14:56.781Z,76.80
2023-07-11T06:17:27.584Z,76.70
2023-07-11T06:19:57.025Z,78.10
2023-07-11T06:22:26.192Z,76.80
2023-07-11T06:24:55.226Z,77.50
2023-07-11T06:27:26.073Z,77.70
2023-07-11T06:29:55.204Z,76.90
2023-07-11T06:32:25.036Z,77.40
2023-07-11T06:34:54.478Z,77.70
2023-07-11T06:37:23.943Z,76.80
2023-07-11T06:39:53.311Z,77.10
2023-07-11T06:42:22.512Z,76.90
2023-07-11T06:44:53.157Z,77.00
2023-07-11T06:47:22.606Z,77.30
2023-07-11T06:49:52.011Z,77.10
2023-07-11T06:52:21.330Z,77.60
2023-07-11T06:54:50.664Z,77.50
2023-07-11T06:57:19.946Z,78.30
2023-07-11T06:59:49.505Z,77.60
2023-07-11T07:02:20.259Z,77.90
2023-07-11T07:04:49.597Z,77.90
2023-07-11T07:07:20.642Z,77.50
2023-07-11T07:09:50.162Z,78.00
2023-07-11T07:12:19.452Z,78.40
2023-07-11T07:14:49.003Z,78.20
2023-07-11T07:17:19.767Z,78.20
2023-07-11T07:19:49.033Z,78.30
2023-07-11T07:22:18.468Z,78.40
2023-07-11T07:24:47.817Z,78.40
2023-07-11T07:27:27.945Z,78.50
2023-07-11T07:29:58.241Z,79.20
2023-07-11T07:32:28.752Z,78.70
2023-07-11T07:34:57.815Z,79.70
2023-07-11T07:37:26.817Z,79.80
2023-07-11T07:39:56.013Z,79.80
2023-07-11T07:42:25.109Z,79.80
2023-07-11T07:44:56.972Z,79.80
2023-07-11T07:47:26.039Z,79.90
2023-07-11T07:49:58.003Z,79.90
2023-07-11T07:52:28.478Z,79.90
2023-07-11T07:54:57.571Z,79.80
2023-07-11T07:57:26.872Z,79.90
2023-07-11T07:59:58.947Z,80.00
2023-07-11T08:02:28.534Z,80.00
2023-07-11T08:04:59.121Z,80.00
2023-07-11T08:07:28.992Z,80.10
2023-07-11T08:09:59.432Z,80.00
2023-07-11T08:12:31.675Z,79.80
2023-07-11T08:15:00.880Z,79.90
2023-07-11T08:17:30.164Z,79.80
2023-07-11T08:20:04.022Z,79.70
2023-07-11T08:22:33.191Z,79.80
2023-07-11T08:25:02.511Z,79.70
2023-07-11T08:27:31.664Z,79.70
2023-07-11T08:30:00.693Z,79.60
2023-07-11T08:32:30.007Z,79.60
2023-07-11T08:34:59.252Z,80.20
2023-07-11T08:37:29.775Z,80.20
2023-07-11T08:39:58.789Z,79.40
2023-07-11T08:42:36.341Z,79.30
2023-07-11T08:45:16.751Z,79.10
2023-07-11T08:47:56.558Z,79.10
2023-07-11T08:50:30.907Z,79.10
2023-07-11T08:53:09.541Z,79.20
2023-07-11T08:55:43.529Z,79.10
2023-07-11T08:58:17.015Z,78.80
2023-07-11T09:00:50.051Z,78.80
2023-07-11T09:03:28.203Z,78.60
2023-07-11T09:06:02.763Z,78.40
2023-07-11T09:08:34.852Z,78.40
2023-07-11T09:11:12.262Z,78.10
2023-07-11T09:13:56.214Z,78.00
2023-07-11T09:16:36.582Z,77.90
2023-07-11T09:19:30.932Z,77.80
2023-07-11T09:22:09.359Z,78.30
2023-07-11T09:24:49.424Z,77.60
2023-07-11T09:27:29.799Z,77.40
2023-07-11T09:29:59.199Z,77.30
2023-07-11T09:32:35.369Z,77.50
2023-07-11T09:35:24.647Z,77.20
2023-07-11T09:38:01.176Z,77.00
2023-07-11T09:40:38.799Z,76.90
2023-07-11T09:43:09.572Z,76.90
2023-07-11T09:45:42.915Z,77.80
2023-07-11T09:48:15.116Z,76.90
2023-07-11T09:51:11.264Z,76.70
2023-07-11T09:53:45.370Z,76.50
2023-07-11T09:56:19.699Z,76.60
2023-07-11T09:58:52.176Z,76.40
2023-07-11T10:01:26.619Z,76.50
2023-07-11T10:03:59.293Z,76.20
2023-07-11T10:09:32.331Z,76.10
2023-07-11T10:12:05.707Z,76.20
2023-07-11T10:14:43.793Z,76.10
2023-07-11T10:17:21.136Z,76.00
2023-07-11T10:20:07.679Z,75.90
2023-07-11T10:22:49.482Z,75.70
2023-07-11T10:25:24.222Z,75.90
2023-07-11T10:27:57.778Z,75.60
2023-07-11T10:30:31.573Z,75.80
2023-07-11T10:33:16.310Z,75.50
2023-07-11T10:35:56.227Z,75.40
2023-07-11T10:38:31.770Z,75.20
2023-07-11T10:41:03.006Z,75.20
2023-07-11T10:43:39.324Z,75.20
2023-07-11T10:46:18.517Z,74.60
2023-07-11T10:48:53.025Z,74.70
2023-07-11T10:51:28.862Z,74.40
2023-07-11T10:54:05.890Z,75.00
2023-07-11T10:56:37.999Z,74.20
2023-07-11T10:59:14.144Z,74.70
2023-07-11T11:01:58.061Z,73.60
2023-07-11T11:05:01.615Z,73.70
2023-07-11T11:07:37.562Z,73.70
2023-07-11T11:10:15.473Z,73.70
2023-07-11T11:12:58.488Z,73.30
2023-07-11T11:15:48.635Z,73.00
2023-07-11T11:18:41.772Z,73.50
2023-07-11T11:21:24.265Z,73.00
2023-07-11T11:24:14.401Z,73.10
2023-07-11T11:26:57.248Z,72.70
2023-07-11T11:29:45.579Z,72.40
2023-07-11T11:32:24.411Z,72.80
2023-07-11T11:35:16.413Z,71.60
2023-07-11T11:38:11.651Z,71.30
2023-07-11T11:40:43.840Z,71.70
2023-07-11T11:43:19.255Z,71.20
2023-07-11T11:53:45.364Z,70.60
2023-07-11T11:56:22.389Z,70.40
2023-07-11T11:58:59.297Z,70.40
2023-07-11T12:01:42.484Z,69.60
2023-07-11T12:04:38.832Z,69.90
2023-07-11T12:07:23.452Z,70.20
2023-07-11T12:10:20.727Z,69.90
2023-07-11T12:13:20.803Z,69.60
2023-07-11T12:15:55.665Z,69.70
2023-07-11T12:18:46.028Z,68.90
2023-07-11T12:21:41.227Z,68.50
2023-07-11T12:24:42.772Z,69.40
2023-07-11T12:27:49.194Z,68.30
2023-07-11T12:30:42.878Z,69.20
2023-07-11T12:33:37.450Z,68.30
2023-07-11T12:36:51.304Z,68.00
2023-07-11T12:39:51.521Z,68.40
2023-07-11T12:42:44.269Z,68.10
2023-07-11T12:45:19.064Z,68.00
2023-07-11T12:47:52.348Z,68.20
2023-07-11T12:50:25.288Z,68.10
2023-07-11T12:53:06.209Z,68.00
2023-07-11T12:55:35.227Z,67.80
2023-07-11T12:58:04.605Z,68.00
2023-07-11T13:00:34.473Z,67.80
2023-07-11T13:03:24.993Z,67.60
2023-07-11T13:06:11.033Z,68.50
2023-07-11T13:08:48.123Z,67.50
2023-07-11T13:11:22.743Z,67.20
2023-07-11T13:13:53.685Z,67.00
2023-07-11T13:16:28.124Z,67.00
2023-07-11T13:18:57.403Z,67.80
2023-07-11T13:21:26.589Z,68.00
2023-07-11T13:24:00.473Z,67.00
2023-07-11T13:26:31.253Z,66.60
2023-07-11T13:29:12.418Z,66.60
2023-07-11T13:31:45.848Z,66.50
2023-07-11T13:34:18.832Z,67.30
2023-07-11T13:36:52.329Z,66.40
2023-07-11T13:39:26.157Z,66.80
2023-07-11T13:42:00.357Z,66.80
2023-07-11T13:44:33.998Z,66.60
2023-07-11T13:47:04.377Z,67.50
2023-07-11T13:49:39.841Z,67.40
2023-07-11T13:52:22.724Z,66.60
2023-07-11T13:54:58.812Z,67.60
2023-07-11T13:57:27.798Z,66.70
2023-07-11T14:00:11.391Z,66.40
2023-07-11T14:02:43.794Z,66.60
2023-07-11T14:05:23.121Z,66.40
2023-07-11T14:07:54.321Z,66.70
2023-07-11T14:10:27.304Z,66.70
2023-07-11T14:12:58.281Z,65.80
2023-07-11T14:15:31.322Z,66.00
2023-07-11T14:18:00.656Z,66.80
2023-07-11T14:20:30.591Z,66.10
2023-07-11T14:23:00.145Z,66.20
2023-07-11T14:25:32.049Z,66.00
2023-07-11T14:28:01.145Z,66.50
2023-07-11T14:30:31.590Z,65.70
2023-07-11T14:33:00.634Z,65.60
2023-07-11T14:35:32.712Z,65.40
2023-07-11T14:38:05.733Z,65.30
2023-07-11T14:40:36.741Z,65.20
2023-07-11T14:43:12.520Z,65.20
2023-07-11T14:45:41.790Z,65.30
2023-07-11T14:48:22.129Z,65.40
2023-07-11T14:51:01.068Z,65.70
2023-07-11T14:53:37.775Z,66.00
2023-07-11T14:58:50.118Z,64.90
2023-07-11T15:01:19.391Z,64.90
2023-07-11T15:16:33.097Z,64.80
2023-07-11T15:19:02.215Z,65.00
2023-07-11T15:21:31.267Z,65.10
2023-07-11T15:24:00.309Z,65.00
2023-07-11T15:26:30.670Z,65.00
2023-07-11T15:28:59.681Z,64.70
2023-07-11T15:31:29.362Z,64.60
2023-07-11T15:33:58.446Z,64.70
2023-07-11T15:36:27.443Z,64.90
2023-07-11T15:38:58.737Z,64.90
2023-07-11T15:41:27.869Z,65.00
2023-07-11T15:43:58.210Z,64.80
2023-07-11T15:46:28.917Z,64.90
2023-07-11T15:49:00.128Z,65.60
2023-07-11T15:51:29.418Z,65.00
2023-07-11T15:53:58.417Z,65.00
2023-07-11T15:56:27.503Z,64.90
2023-07-11T15:58:57.846Z,65.00
2023-07-11T16:01:26.904Z,65.00
2023-07-11T16:03:55.971Z,65.00
2023-07-11T16:06:25.057Z,65.00
2023-07-11T16:08:54.072Z,65.00
2023-07-11T16:11:23.997Z,65.10
2023-07-11T16:13:53.224Z,65.10
2023-07-11T16:16:24.037Z,65.00
2023-07-11T16:18:53.387Z,64.70
2023-07-11T16:21:22.456Z,64.60
2023-07-11T16:23:51.516Z,64.70
2023-07-11T16:26:24.877Z,64.70
2023-07-11T16:28:54.066Z,64.70
2023-07-11T16:31:26.879Z,64.60
2023-07-11T16:33:56.272Z,64.60
2023-07-11T16:36:25.316Z,64.60
2023-07-11T16:38:54.343Z,65.30
2023-07-11T16:41:25.648Z,64.80
2023-07-11T16:43:54.920Z,64.70
2023-07-11T16:46:25.428Z,64.70
2023-07-11T16:48:55.270Z,64.60
2023-07-11T16:51:26.829Z,64.20
2023-07-11T16:54:09.500Z,64.10
2023-07-11T16:56:51.843Z,64.30
2023-07-11T16:59:27.110Z,64.10
2023-07-11T17:02:24.203Z,64.20
2023-07-11T17:05:28.829Z,64.90
2023-07-11T17:08:36.129Z,64.60
2023-07-11T17:11:13.197Z,65.30
2023-07-11T17:13:44.306Z,65.20
2023-07-11T17:17:10.048Z,64.70
2023-07-11T17:25:06.130Z,65.60
2023-07-11T17:35:50.326Z,65.50
2023-07-11T17:49:56.594Z,66.50
2023-07-11T17:52:38.060Z,66.50
2023-07-11T17:55:11.865Z,65.10
2023-07-11T17:57:43.903Z,66.10
2023-07-11T18:00:17.877Z,65.80
2023-07-11T18:03:00.627Z,66.30
2023-07-11T18:05:36.827Z,66.00
2023-07-11T18:08:14.063Z,65.50
2023-07-11T18:10:50.286Z,66.50
2023-07-11T18:13:25.895Z,66.00
2023-07-11T18:16:01.586Z,66.00
2023-07-11T18:18:42.427Z,66.00
2023-07-11T18:21:18.891Z,65.90
2023-07-11T18:23:53.220Z,65.90
2023-07-11T18:27:37.216Z,66.50
2023-07-11T18:30:37.814Z,67.20
2023-07-11T18:33:20.729Z,67.30
2023-07-11T18:35:55.383Z,66.30
2023-07-11T18:38:42.659Z,65.90
2023-07-11T18:41:20.657Z,66.30
2023-07-11T18:43:55.870Z,66.60
2023-07-11T18:46:38.239Z,66.10
2023-07-11T18:49:10.234Z,66.10
2023-07-11T18:52:15.072Z,65.90
2023-07-11T18:54:54.754Z,65.60
2023-07-11T18:57:33.079Z,65.70
2023-07-11T19:00:20.008Z,65.60
2023-07-11T19:02:54.159Z,65.70
2023-07-11T19:05:28.673Z,65.70
2023-07-11T19:08:00.829Z,66.50
2023-07-11T19:10:34.654Z,66.20
2023-07-11T19:13:04.620Z,66.40
2023-07-11T19:15:38.168Z,66.40
2023-07-11T19:18:26.581Z,66.80
2023-07-11T19:21:02.151Z,67.30
2023-07-11T19:23:48.733Z,66.20
2023-07-11T19:26:26.322Z,65.90
2023-07-11T19:29:06.498Z,65.80
2023-07-11T19:31:42.578Z,65.60
2023-07-11T19:34:13.787Z,66.00
2023-07-11T19:37:04.600Z,65.60
2023-07-11T19:40:10.807Z,66.20
2023-07-11T19:43:00.069Z,66.40
2023-07-11T19:45:39.604Z,65.30
2023-07-11T19:48:26.967Z,66.20
2023-07-11T19:51:01.743Z,65.50
2023-07-11T19:53:33.510Z,66.30
2023-07-11T19:56:41.092Z,66.10
2023-07-11T19:59:19.798Z,66.60
2023-07-11T20:01:52.770Z,66.10
2023-07-11T20:04:45.403Z,65.80
2023-07-11T20:07:43.808Z,67.20
2023-07-11T20:10:31.234Z,66.50
2023-07-11T20:13:02.618Z,66.60
2023-07-11T20:15:51.241Z,66.70
2023-07-11T20:18:37.337Z,66.60
2023-07-11T20:21:14.936Z,66.40
2023-07-11T20:24:10.209Z,66.60
2023-07-11T20:30:17.433Z,66.70
2023-07-11T20:32:59.797Z,66.70
2023-07-11T20:35:30.714Z,67.00
2023-07-11T20:38:20.210Z,66.50
2023-07-11T20:41:03.033Z,66.60
2023-07-11T20:44:25.929Z,67.10
2023-07-11T20:49:13.383Z,67.00
2023-07-11T20:52:35.492Z,67.80
2023-07-11T20:55:08.229Z,67.90
2023-07-11T20:58:14.771Z,67.60
2023-07-11T21:07:29.980Z,68.80
2023-07-11T21:29:29.294Z,68.30
2023-07-11T21:33:03.955Z,68.20
2023-07-11T21:36:19.647Z,68.00
2023-07-11T21:42:43.792Z,67.80
2023-07-11T21:46:00.009Z,67.40
2023-07-11T21:48:37.471Z,68.20
2023-07-11T21:51:34.033Z,67.70
2023-07-11T21:54:04.717Z,68.10
2023-07-11T21:56:52.476Z,68.20
2023-07-11T21:59:25.897Z,69.00
2023-07-11T22:01:57.266Z,69.00
2023-07-11T22:04:27.084Z,69.10
2023-07-11T22:09:55.346Z,70.00
2023-07-11T22:12:24.383Z,70.30
2023-07-11T22:14:53.463Z,70.20
2023-07-11T22:17:25.484Z,70.10
2023-07-11T22:19:55.231Z,70.20
2023-07-11T22:22:24.255Z,70.40
2023-07-11T22:24:54.661Z,71.40
2023-07-11T22:27:24.946Z,71.10
2023-07-11T22:29:53.956Z,70.80
2023-07-11T22:32:26.761Z,70.80
2023-07-11T22:34:57.336Z,70.60
2023-07-11T22:37:27.295Z,71.20
2023-07-11T22:39:57.655Z,72.10
2023-07-11T22:42:26.754Z,72.70
2023-07-11T22:44:55.835Z,73.40
2023-07-11T22:47:24.888Z,73.30
2023-07-11T22:49:53.870Z,73.10
2023-07-11T22:52:22.850Z,74.40
2023-07-11T22:54:51.819Z,75.30
2023-07-11T22:57:22.201Z,75.50
2023-07-11T22:59:51.193Z,75.90
2023-07-11T23:02:20.306Z,75.70
2023-07-11T23:04:49.413Z,76.00
2023-07-11T23:07:18.454Z,76.40
2023-07-11T23:09:47.384Z,77.20
2023-07-11T23:12:16.399Z,78.10
2023-07-11T23:14:46.747Z,77.90
2023-07-11T23:17:15.748Z,78.50
2023-07-11T23:19:44.795Z,79.40
2023-07-11T23:22:13.835Z,79.20
2023-07-11T23:24:45.572Z,79.60
2023-07-11T23:27:14.885Z,79.70
2023-07-11T23:29:43.898Z,79.60
2023-07-11T23:32:17.256Z,79.60
2023-07-11T23:34:46.257Z,80.30
2023-07-11T23:37:15.226Z,80.30
2023-07-11T23:39:46.482Z,80.50
2023-07-11T23:42:15.700Z,80.70
2023-07-11T23:44:45.111Z,81.00
2023-07-11T23:47:14.101Z,81.10
2023-07-11T23:49:44.465Z,81.90
2023-07-11T23:52:13.436Z,81.70
2023-07-11T23:54:43.485Z,81.80
2023-07-11T23:57:12.540Z,82.10
2023-07-11T23:59:41.555Z,82.40
